SAEZFMMI

Guest
Details From SAEZ - Ministro Pistarini (ezeiza)
To FMMI - Ivato
Flight Number -
Tags Generated
Created
Modified
Stats Distance 5,510 nm / 10,204 km
Max Altitude 0 ft / 0 m
Waypoints 6
Social Downloads 0
Likes 0
Share VATSIM

Download

Looking for another format? Having issues loading an existing format? Contact us
Advertisement - Login to hide

Notes

Generated

Route

SAEZ IMSAD GESOX VAVAN IA FMMI

ID Type Via Altitude Latitude Longitude Leg Dist Tot Dist Heading (true) Name
O SAEZ APT - 0 ft / 0 m -34.80841˚ -58.53386˚ - 0 nm - -
IMSAD FIX - 0 ft / 0 m -32.95525˚ 23.35813˚ 3960 nm 3960 nm 115° / 63° -
GESOX FIX - 0 ft / 0 m -31.20059˚ 27.17584˚ 220 nm 4181 nm 63° / 61° -
VAVAN FIX - 0 ft / 0 m -29.18611˚ 31.27556˚ 244 nm 4425 nm 61° / 59° -
IA NDB - 0 ft / 0 m -18.79336˚ 47.45492˚ 1083 nm 5509 nm 58° / 52° ANTANANARIVO IVATO NDB
O FMMI APT - 0 ft / 0 m -18.79479˚ 47.46427˚ 0 nm 5509 nm 99° / 99° -

Altitude Profile

Advertisement - Login to hide

Weather


0- 5 10 15 20 25 30 35+ Temperature / ° C

Clouds and Precipitation
Forecast for 2018-05-23 00:00 UTC. Updated an hour ago

Ground ~20,000 ft ~40,000 ft Winds

SAEZ

Details ICAO SAEZ (EZE)
Name Ministro Pistarini (Ezeiza)
Region Argentina
Timezone America/Argentina/Buenos_Aires (UTC-3.0)
Stats Elevation 66 ft / 20 m (AMSL)
Location -34.821380° -58.532731°
Runways 2
Magnetic Variation 8.796° W

METAR

SAEZ 230000Z 31005KT 9000 NSC 11/05 Q1020 NOSIG

Decode

TAF

TAF SAEZ 222300Z 2300/2324 30005KT CAVOK TX17/2318Z TN03/2310Z

Decode

Departure Runways

ID Width Length Bearing (true) Bearing (mag) Surface Threshold Offset Overrun Length
11 190 ft / 58 m 10,778 ft / 3,285 m 102.20° 111.00° Asphalt 0 ft / 0 m 0 ft / 0 m
17 151 ft / 46 m 9,153 ft / 2,790 m 163.98° 172.78° Asphalt 0 ft / 0 m 98 ft / 30 m
29 190 ft / 58 m 10,778 ft / 3,285 m 282.18° 290.98° Asphalt 0 ft / 0 m 115 ft / 35 m
35 151 ft / 46 m 9,153 ft / 2,790 m 343.98° 352.78° Asphalt 984 ft / 300 m 1,024 ft / 312 m

FMMI

Details ICAO FMMI (TNR)
Name IVATO
Region Comoros, Mayotte, Réunion and Madagascar
Timezone Indian/Antananarivo (UTC+3.0)
Stats Elevation 4,198 ft / 1,280 m (AMSL)
Location -18.796950° 47.478806°
Runways 1
Magnetic Variation 15.172° W

METAR

FMMI 230000Z 14007KT 9999 BKN017 15/13 Q1025 NOSIG

Decode

TAF

TAF FMMI 222300Z 2300/2406 15008KT 9999 FEW007 BKN020= TAF FMEE 222300Z 2300/2406 14012KT 9999 SCT026 PROB30 TEMPO 2300/2306 4500 SHRA BECMG 2305/2306 12020G30KT BECMG 2313/2315 14014KT

Decode

Destination Runways

ID Width Length Bearing (true) Bearing (mag) Surface Threshold Offset Overrun Length
11 148 ft / 45 m 10,167 ft / 3,099 m 98.92° 114.09° Asphalt 0 ft / 0 m 90 ft / 27 m
29 148 ft / 45 m 10,167 ft / 3,099 m 278.91° 294.08° Asphalt 0 ft / 0 m 90 ft / 27 m

Approach Navaids

Runway Type Ident Frequency Range Bearing (true) Bearing (mag) Slope Elevation
11 Localiser IO 109.50 MHz 18 nm / 33 km 98.89° 114.06° - 4,125 ft / 1,257 m (AMSL)
11 Glidescope IO 109.50 MHz 10 nm / 19 km 98.91° 114.08° 3.00° 4,198 ft / 1,280 m (AMSL)

Popular Alternatives